Time;durP1;ratioP1;P1;durP2;ratioP2;P2;SDS_P1;SDS_P2;PMS_P1;PMS_P2;Temp;Humidity;BMP_temperature;BMP_pressure;BME280_temperature;BME280_humidity;BME280_pressure;Samples;Min_cycle;Max_cycle;Signal;HPM_P1;HPM_P2
2022/11/13 00:00:25;;;;;;;135.52;20.60;;;;;;;1.87;100.00;96897.03;1031067;28;20022;-71
2022/11/13 00:00:56;;;;;;;154.95;19.42;;;;;;;1.97;100.00;96906.31;1031374;28;20038;-71
2022/11/13 00:01:26;;;;;;;119.85;17.40;;;;;;;1.98;100.00;96908.75;1030578;28;20031;-69
2022/11/13 00:01:57;;;;;;;131.18;21.92;;;;;;;1.93;100.00;96900.69;1031954;28;20033;-69
2022/11/13 00:02:27;;;;;;;133.00;19.25;;;;;;;1.96;100.00;96908.09;1032337;28;20410;-70
2022/11/13 00:02:58;;;;;;;123.43;19.52;;;;;;;1.87;100.00;96897.03;1034869;28;20491;-70
2022/11/13 00:03:29;;;;;;;90.53;17.10;;;;;;;1.96;100.00;96902.94;1038936;28;20013;-68
2022/11/13 00:03:59;;;;;;;81.90;16.85;;;;;;;1.98;100.00;96900.16;1035538;28;20408;-71
2022/11/13 00:04:30;;;;;;;150.13;23.05;;;;;;;1.96;100.00;96908.09;1034573;28;20030;-68
2022/11/13 00:05:00;;;;;;;98.60;18.55;;;;;;;1.89;100.00;96896.88;1026144;28;20027;-69
2022/11/13 00:05:30;;;;;;;102.80;18.55;;;;;;;1.97;100.00;96907.13;1024310;28;20023;-70
2022/11/13 00:06:01;;;;;;;178.77;20.25;;;;;;;2.00;100.00;96905.97;1022751;28;20028;-71
2022/11/13 00:06:31;;;;;;;96.53;17.88;;;;;;;2.01;100.00;96908.41;1026998;28;20034;-70
2022/11/13 00:07:02;;;;;;;131.15;18.65;;;;;;;1.97;100.00;96908.91;1034752;28;20389;-70
2022/11/13 00:07:32;;;;;;;148.20;17.10;;;;;;;1.97;100.00;96907.13;1026831;28;20023;-71
2022/11/13 00:08:03;;;;;;;93.03;19.35;;;;;;;1.96;100.00;96900.34;1025086;28;20023;-70
2022/11/13 00:08:33;;;;;;;161.23;22.10;;;;;;;1.97;100.00;96896.75;1022952;29;20202;-70
2022/11/13 00:09:04;;;;;;;162.90;19.05;;;;;;;1.95;100.00;96909.09;1029187;28;20019;-70
2022/11/13 00:09:34;;;;;;;182.15;25.25;;;;;;;1.99;100.00;96901.78;1038929;28;20021;-72
2022/11/13 00:10:05;;;;;;;168.43;20.83;;;;;;;1.96;100.00;96907.31;1039036;28;20507;-70
2022/11/13 00:10:35;;;;;;;165.02;19.30;;;;;;;1.97;100.00;96906.31;1034876;28;20388;-69
2022/11/13 00:11:12;;;;;;;143.43;20.02;;;;;;;1.99;100.00;96899.19;1030838;28;20023;-69
2022/11/13 00:11:42;;;;;;;109.65;17.33;;;;;;;2.04;100.00;96902.81;1029314;28;20454;-70
2022/11/13 00:12:12;;;;;;;99.90;16.33;;;;;;;2.00;100.00;96898.19;1029323;28;20324;-69
2022/11/13 00:12:43;;;;;;;156.00;18.17;;;;;;;2.00;100.00;96896.41;1031586;28;20027;-69
2022/11/13 00:13:13;;;;;;;157.55;21.95;;;;;;;2.00;100.00;96900.78;1032612;28;20453;-68
2022/11/13 00:13:44;;;;;;;122.97;19.08;;;;;;;2.01;100.00;96895.44;1034964;28;20033;-69
2022/11/13 00:14:15;;;;;;;142.65;21.17;;;;;;;2.03;100.00;96901.22;1038916;28;20032;-71
2022/11/13 00:14:45;;;;;;;173.68;21.33;;;;;;;1.98;100.00;96898.41;1035091;28;20275;-71
2022/11/13 00:15:16;;;;;;;127.13;21.58;;;;;;;2.00;100.00;96896.41;1034241;28;20076;-71
2022/11/13 00:15:55;;;;;;;140.55;20.88;;;;;;;2.08;100.00;96893.75;1037834;28;20053;-68
2022/11/13 00:16:26;;;;;;;141.95;18.85;;;;;;;2.06;100.00;96893.09;1035059;28;20035;-69
2022/11/13 00:16:57;;;;;;;134.30;18.02;;;;;;;2.01;100.00;96894.63;1034820;28;20483;-71
2022/11/13 00:17:27;;;;;;;127.47;16.85;;;;;;;1.91;100.00;96881.94;1036247;28;20376;-69
2022/11/13 00:18:01;;;;;;;177.20;17.98;;;;;;;1.92;100.00;96891.34;1034833;28;20010;-69
2022/11/13 00:18:33;;;;;;;114.72;20.10;;;;;;;1.92;100.00;96888.75;1030987;28;20107;-69
2022/11/13 00:19:03;;;;;;;118.25;18.52;;;;;;;1.93;100.00;96890.34;1033312;28;20265;-71
2022/11/13 00:19:34;;;;;;;114.20;19.13;;;;;;;1.93;100.00;96884.38;1034422;28;20257;-70
2022/11/13 00:20:05;;;;;;;116.47;18.77;;;;;;;1.90;100.00;96885.53;1027952;28;20480;-70
2022/11/13 00:20:35;;;;;;;114.82;19.65;;;;;;;2.01;100.00;96894.63;1027541;28;20476;-70
2022/11/13 00:21:07;;;;;;;121.85;21.13;;;;;;;1.86;100.00;96879.91;1034847;28;20026;-69
2022/11/13 00:21:37;;;;;;;113.90;17.65;;;;;;;1.93;100.00;96881.78;1031490;28;20026;-70
2022/11/13 00:22:08;;;;;;;130.07;19.70;;;;;;;1.94;100.00;96891.94;1034852;28;20582;-69
2022/11/13 00:22:39;;;;;;;86.13;17.65;;;;;;;1.91;100.00;96875.97;1033508;28;20094;-69
2022/11/13 00:23:09;;;;;;;184.70;25.95;;;;;;;1.95;100.00;96883.22;1034984;28;20018;-69
2022/11/13 00:23:39;;;;;;;160.30;28.00;;;;;;;1.95;100.00;96879.84;1030908;28;20018;-68
2022/11/13 00:24:10;;;;;;;161.95;25.50;;;;;;;1.92;100.00;96883.56;1034673;28;20496;-68
2022/11/13 00:24:40;;;;;;;96.78;24.33;;;;;;;1.99;100.00;96879.28;1026586;28;20806;-70
2022/11/13 00:25:11;;;;;;;146.20;22.55;;;;;;;1.93;100.00;96872.22;1031042;28;20022;-73
2022/11/13 00:25:41;;;;;;;136.10;22.77;;;;;;;2.01;100.00;96884.28;1034556;28;20030;-69
2022/11/13 00:26:16;;;;;;;150.77;19.35;;;;;;;1.94;100.00;96886.78;1034703;28;20033;-67
2022/11/13 00:26:47;;;;;;;130.00;19.48;;;;;;;1.84;100.00;96868.13;1038942;28;20479;-68
2022/11/13 00:27:17;;;;;;;110.43;21.15;;;;;;;1.98;100.00;96882.88;1035086;28;20273;-69
2022/11/13 00:27:47;;;;;;;169.80;20.75;;;;;;;1.95;100.00;96880.63;1034040;28;20014;-68
2022/11/13 00:28:18;;;;;;;108.95;21.50;;;;;;;1.96;100.00;96884.03;1022756;28;20051;-68
2022/11/13 00:28:53;;;;;;;108.00;20.27;;;;;;;1.95;100.00;96883.22;1026760;28;20022;-69
2022/11/13 00:29:23;;;;;;;116.72;21.02;;;;;;;1.96;100.00;96890.00;1026454;28;20027;-70
2022/11/13 00:29:54;;;;;;;139.35;22.13;;;;;;;1.98;100.00;96874.28;1030582;28;20254;-69
2022/11/13 00:30:24;;;;;;;123.82;20.10;;;;;;;1.95;100.00;96878.03;1030579;28;20015;-69
2022/11/13 00:30:59;;;;;;;93.65;19.35;;;;;;;1.96;100.00;96874.47;1029179;28;20048;-68
2022/11/13 00:31:30;;;;;;;90.45;19.25;;;;;;;1.98;100.00;96877.69;1021823;29;20023;-70
2022/11/13 00:32:00;;;;;;;123.10;19.42;;;;;;;1.94;100.00;96875.63;1014642;29;20260;-69
2022/11/13 00:32:30;;;;;;;139.35;20.52;;;;;;;1.91;100.00;96874.19;1014956;29;20016;-68
2022/11/13 00:33:01;;;;;;;127.10;17.77;;;;;;;1.86;100.00;96873.94;1018990;28;20016;-69
2022/11/13 00:33:32;;;;;;;97.40;16.60;;;;;;;1.88;100.00;96866.81;1026903;28;20014;-68
2022/11/13 00:34:02;;;;;;;127.93;18.83;;;;;;;1.83;100.00;96863.94;1030738;28;20018;-68
2022/11/13 00:34:32;;;;;;;114.40;17.65;;;;;;;1.87;100.00;96870.34;1030765;28;20033;-68
2022/11/13 00:35:03;;;;;;;105.40;17.60;;;;;;;1.81;100.00;96860.72;1023153;28;20024;-68
2022/11/13 00:35:34;;;;;;;118.53;20.42;;;;;;;1.86;100.00;96863.59;1027070;28;20019;-67
2022/11/13 00:36:15;;;;;;;91.80;17.08;;;;;;;1.81;100.00;96855.53;1034768;28;20542;-70
2022/11/13 00:36:46;;;;;;;91.05;18.05;;;;;;;1.86;100.00;96864.38;1032269;28;20508;-67
2022/11/13 00:37:16;;;;;;;107.65;19.60;;;;;;;1.88;100.00;96871.97;1022605;29;20271;-68
2022/11/13 00:37:47;;;;;;;109.25;18.95;;;;;;;1.90;100.00;96864.81;1022783;29;20020;-70
2022/11/13 00:38:17;;;;;;;100.78;19.48;;;;;;;1.89;100.00;96868.41;1022411;29;20031;-67
2022/11/13 00:38:48;;;;;;;68.28;17.33;;;;;;;1.82;100.00;96850.22;1019224;28;20035;-69
2022/11/13 00:39:18;;;;;;;93.28;18.02;;;;;;;1.87;100.00;96863.38;1022830;28;20409;-68
2022/11/13 00:39:48;;;;;;;87.32;18.48;;;;;;;1.85;100.00;96862.78;1023546;28;20031;-68
2022/11/13 00:40:19;;;;;;;69.32;18.30;;;;;;;1.89;100.00;96864.03;1026673;28;20026;-68
2022/11/13 00:40:49;;;;;;;108.88;20.85;;;;;;;1.89;100.00;96864.03;1027042;28;20023;-69
2022/11/13 00:41:20;;;;;;;91.78;19.33;;;;;;;1.91;100.00;96860.44;1034851;28;20025;-70
2022/11/13 00:41:50;;;;;;;101.78;19.27;;;;;;;1.92;100.00;96864.66;1038933;28;20018;-68
2022/11/13 00:42:21;;;;;;;115.68;18.58;;;;;;;1.85;100.00;96856.81;1038349;28;20073;-68
2022/11/13 00:42:51;;;;;;;131.13;17.95;;;;;;;1.86;100.00;96863.59;1034728;28;20558;-69
2022/11/13 00:43:22;;;;;;;124.57;19.90;;;;;;;1.85;100.00;96865.38;1034751;28;20096;-68
2022/11/13 00:43:52;;;;;;;138.82;22.08;;;;;;;1.87;100.00;96865.19;1030791;28;20023;-69
2022/11/13 00:44:23;;;;;;;127.28;18.55;;;;;;;1.85;100.00;96862.00;1030865;28;20021;-68
2022/11/13 00:44:53;;;;;;;94.88;15.70;;;;;;;1.83;100.00;96859.56;1035344;28;20205;-69
2022/11/13 00:45:24;;;;;;;145.02;19.85;;;;;;;1.83;100.00;96867.31;1039093;28;20021;-70
2022/11/13 00:45:54;;;;;;;133.85;18.60;;;;;;;1.79;100.00;96852.34;1038809;28;20018;-68
2022/11/13 00:46:24;;;;;;;144.13;19.55;;;;;;;1.80;100.00;96856.53;1038771;28;20061;-68
2022/11/13 00:46:55;;;;;;;120.03;18.73;;;;;;;1.85;100.00;96860.19;1029755;28;20015;-70
2022/11/13 00:47:25;;;;;;;104.97;18.38;;;;;;;1.87;100.00;96860.00;1030821;28;20058;-69
2022/11/13 00:47:56;;;;;;;99.97;17.48;;;;;;;1.91;100.00;96858.66;1030694;28;20504;-70
2022/11/13 00:48:26;;;;;;;116.95;18.88;;;;;;;1.89;100.00;96853.69;1028330;28;20027;-68
2022/11/13 00:48:57;;;;;;;111.95;19.83;;;;;;;1.93;100.00;96861.09;1026513;28;20040;-68
2022/11/13 00:49:27;;;;;;;108.80;18.77;;;;;;;1.87;100.00;96852.25;1030726;28;20010;-69
2022/11/13 00:49:58;;;;;;;134.77;20.05;;;;;;;1.80;100.00;96849.56;1022524;28;20035;-70
2022/11/13 00:50:28;;;;;;;105.47;18.80;;;;;;;1.84;100.00;96855.19;1034752;28;20088;-70
2022/11/13 00:50:59;;;;;;;106.90;19.17;;;;;;;1.89;100.00;96858.06;1034525;28;20116;-70
2022/11/13 00:51:29;;;;;;;118.05;20.02;;;;;;;1.95;100.00;96861.72;1030763;28;20611;-69
2022/11/13 00:52:01;;;;;;;93.10;17.80;;;;;;;1.95;100.00;96859.94;1038471;28;20574;-70
2022/11/13 00:52:32;;;;;;;105.93;18.60;;;;;;;1.99;100.00;96861.16;1018133;28;20356;-69
2022/11/13 00:53:02;;;;;;;98.07;17.95;;;;;;;2.02;100.00;96862.59;1030540;28;20356;-70
2022/11/13 00:53:33;;;;;;;110.40;21.02;;;;;;;2.04;100.00;96863.19;1026446;28;20030;-70
2022/11/13 00:54:03;;;;;;;103.40;18.00;;;;;;;2.08;100.00;96857.50;1022870;28;20413;-69
2022/11/13 00:54:34;;;;;;;88.22;19.35;;;;;;;2.03;100.00;96849.47;1018638;29;20078;-69
2022/11/13 00:55:05;;;;;;;108.97;20.23;;;;;;;2.07;100.00;96850.69;1022612;28;20098;-68
2022/11/13 00:55:35;;;;;;;119.07;20.02;;;;;;;2.08;100.00;96864.47;1022665;28;20529;-68
2022/11/13 00:56:06;;;;;;;116.50;19.38;;;;;;;2.03;100.00;96862.41;1018770;29;20287;-69
2022/11/13 00:56:36;;;;;;;84.05;17.25;;;;;;;2.03;100.00;96859.03;1026680;28;20021;-69
2022/11/13 00:57:07;;;;;;;110.55;18.17;;;;;;;2.04;100.00;96855.44;1030274;28;20026;-70
2022/11/13 00:57:37;;;;;;;111.35;19.08;;;;;;;1.94;100.00;96850.53;1018729;29;20394;-69
2022/11/13 00:58:08;;;;;;;119.43;18.85;;;;;;;1.94;100.00;96854.91;1014996;29;20598;-71
2022/11/13 00:58:38;;;;;;;104.15;17.83;;;;;;;1.98;100.00;96856.97;1016409;29;20020;-68
2022/11/13 00:59:09;;;;;;;106.45;17.90;;;;;;;1.96;100.00;96851.16;1022845;28;20019;-68
2022/11/13 00:59:39;;;;;;;100.60;18.27;;;;;;;1.91;100.00;96856.06;1022793;28;20520;-70
2022/11/13 01:00:10;;;;;;;117.68;20.63;;;;;;;1.87;100.00;96853.03;1030575;28;20050;-69
2022/11/13 01:00:41;;;;;;;99.93;18.73;;;;;;;1.86;100.00;96842.88;1026727;28;20053;-70
2022/11/13 01:01:13;;;;;;;136.85;22.55;;;;;;;1.87;100.00;96840.09;1033617;28;20380;-70
2022/11/13 01:01:44;;;;;;;123.65;20.45;;;;;;;1.96;100.00;96858.94;1034821;28;20701;-69
2022/11/13 01:02:14;;;;;;;106.78;21.90;;;;;;;1.96;100.00;96858.13;1033579;28;20258;-69
2022/11/13 01:02:44;;;;;;;95.93;18.05;;;;;;;1.85;100.00;96842.09;1031268;28;20022;-70
2022/11/13 01:03:15;;;;;;;86.22;17.80;;;;;;;1.89;100.00;96847.69;1034643;28;20088;-68
2022/11/13 01:03:46;;;;;;;102.68;19.00;;;;;;;1.99;100.00;96858.56;1030687;28;20022;-68
2022/11/13 01:04:16;;;;;;;83.15;17.05;;;;;;;2.01;100.00;96853.22;1030713;28;20022;-68
2022/11/13 01:04:47;;;;;;;117.00;19.92;;;;;;;2.01;100.00;96855.78;1030951;28;20019;-68
2022/11/13 01:05:17;;;;;;;90.53;18.80;;;;;;;2.02;100.00;96850.44;1030534;28;20149;-68
2022/11/13 01:05:48;;;;;;;103.20;17.48;;;;;;;1.99;100.00;96852.59;1030726;28;20045;-68
2022/11/13 01:06:20;;;;;;;106.38;18.27;;;;;;;2.01;100.00;96846.28;1030518;28;20144;-70
2022/11/13 01:06:50;;;;;;;108.70;17.88;;;;;;;1.93;100.00;96840.38;1030945;28;20045;-67
2022/11/13 01:07:21;;;;;;;113.85;18.27;;;;;;;1.97;100.00;96847.59;1026647;28;20270;-70
2022/11/13 01:07:51;;;;;;;151.18;23.95;;;;;;;1.98;100.00;96844.03;1030297;28;20018;-68
2022/11/13 01:08:22;;;;;;;97.53;16.48;;;;;;;1.95;100.00;96847.00;1026719;28;20022;-69
2022/11/13 01:08:53;;;;;;;97.93;18.50;;;;;;;1.97;100.00;96837.25;1026493;28;20101;-68
2022/11/13 01:09:24;;;;;;;137.15;20.63;;;;;;;1.90;100.00;96833.78;1030744;28;20030;-70
2022/11/13 01:09:54;;;;;;;109.88;17.35;;;;;;;2.00;100.00;96844.66;1034610;28;20261;-70
2022/11/13 01:10:24;;;;;;;78.05;18.33;;;;;;;2.02;100.00;96842.69;1034610;28;20020;-68
2022/11/13 01:10:55;;;;;;;94.82;18.48;;;;;;;1.99;100.00;96835.28;1034753;28;20210;-71
2022/11/13 01:11:27;;;;;;;96.72;16.85;;;;;;;1.89;100.00;96827.78;1034495;28;20030;-69
2022/11/13 01:11:57;;;;;;;82.72;17.13;;;;;;;1.97;100.00;96834.66;1026626;28;20028;-70
2022/11/13 01:12:28;;;;;;;93.05;20.40;;;;;;;1.99;100.00;96837.06;1025949;28;20768;-69
2022/11/13 01:12:58;;;;;;;80.38;18.63;;;;;;;2.00;100.00;96843.84;1022957;28;20643;-68
2022/11/13 01:13:28;;;;;;;149.68;21.15;;;;;;;1.98;100.00;96841.44;1022758;28;20393;-70
2022/11/13 01:13:59;;;;;;;88.80;17.58;;;;;;;1.97;100.00;96839.03;1026293;28;20087;-69
2022/11/13 01:14:29;;;;;;;104.80;18.23;;;;;;;1.96;100.00;96837.44;1026782;28;20101;-69
2022/11/13 01:15:00;;;;;;;63.10;15.80;;;;;;;1.97;100.00;96833.84;1026599;28;20022;-69
2022/11/13 01:15:30;;;;;;;106.38;19.90;;;;;;;1.95;100.00;96834.03;1027293;28;20335;-67
2022/11/13 01:16:04;;;;;;;111.43;19.40;;;;;;;1.88;100.00;96820.22;1034652;28;20025;-68
2022/11/13 01:16:34;;;;;;;91.28;16.67;;;;;;;1.93;100.00;96835.19;1031005;28;20021;-69
2022/11/13 01:17:05;;;;;;;85.10;17.40;;;;;;;1.93;100.00;96833.41;1034623;28;20268;-70
2022/11/13 01:17:35;;;;;;;98.93;17.67;;;;;;;1.91;100.00;96827.59;1033982;28;20018;-70
2022/11/13 01:18:06;;;;;;;84.35;17.27;;;;;;;1.83;100.00;96822.53;1018631;29;20119;-68
2022/11/13 01:18:37;;;;;;;76.15;18.10;;;;;;;1.96;100.00;96835.63;1026567;28;20010;-71
2022/11/13 01:19:07;;;;;;;79.32;18.02;;;;;;;1.93;100.00;96817.09;1022555;29;20019;-70
2022/11/13 01:19:37;;;;;;;106.63;19.58;;;;;;;1.98;100.00;96831.09;1022708;28;20023;-67
2022/11/13 01:20:08;;;;;;;79.10;16.73;;;;;;;1.96;100.00;96832.25;1022458;28;20102;-70
2022/11/13 01:20:39;;;;;;;63.45;16.95;;;;;;;1.99;100.00;96831.91;1026727;28;20498;-70
2022/11/13 01:21:16;;;;;;;92.38;20.52;;;;;;;1.98;100.00;96831.09;1026734;28;20273;-70
2022/11/13 01:21:47;;;;;;;121.03;20.38;;;;;;;2.04;100.00;96826.97;1028005;28;20094;-70
2022/11/13 01:22:17;;;;;;;84.00;18.80;;;;;;;1.97;100.00;96829.47;1016955;29;20848;-70
2022/11/13 01:22:47;;;;;;;76.72;16.42;;;;;;;1.98;100.00;96825.91;1022394;29;20465;-69
2022/11/13 01:23:18;;;;;;;108.50;18.83;;;;;;;1.97;100.00;96829.47;1022713;29;20043;-70
2022/11/13 01:23:48;;;;;;;109.53;19.75;;;;;;;2.01;100.00;96830.75;1023031;29;20027;-69
2022/11/13 01:24:19;;;;;;;116.18;18.77;;;;;;;1.99;100.00;96826.72;1022595;28;20027;-70
2022/11/13 01:24:49;;;;;;;74.47;18.17;;;;;;;1.96;100.00;96827.88;1023043;28;20023;-70
2022/11/13 01:25:20;;;;;;;106.13;19.35;;;;;;;1.99;100.00;96821.53;1026838;28;20030;-70
2022/11/13 01:25:50;;;;;;;113.03;19.70;;;;;;;1.98;100.00;96830.28;1026380;28;20027;-68
2022/11/13 01:26:20;;;;;;;93.32;16.42;;;;;;;2.01;100.00;96825.56;1026813;28;20065;-68
2022/11/13 01:26:51;;;;;;;98.20;18.45;;;;;;;1.94;100.00;96824.66;1030818;28;20085;-70
2022/11/13 01:27:21;;;;;;;106.88;18.15;;;;;;;1.94;100.00;96824.66;1022513;29;20123;-69
2022/11/13 01:27:52;;;;;;;85.55;18.17;;;;;;;1.96;100.00;96820.13;1022971;29;20569;-70
2022/11/13 01:28:22;;;;;;;101.22;18.00;;;;;;;1.98;100.00;96831.09;1022837;29;20019;-69
2022/11/13 01:28:53;;;;;;;88.63;18.27;;;;;;;1.98;100.00;96823.34;1022896;29;20023;-70
2022/11/13 01:29:23;;;;;;;91.35;18.55;;;;;;;1.98;100.00;96825.91;1021610;28;20023;-68
2022/11/13 01:29:54;;;;;;;100.43;18.25;;;;;;;1.93;100.00;96820.47;1022921;29;20624;-69
2022/11/13 01:30:24;;;;;;;101.65;18.10;;;;;;;1.89;100.00;96816.66;1018724;29;20102;-68
2022/11/13 01:30:55;;;;;;;91.70;17.80;;;;;;;1.91;100.00;96817.25;1028204;28;20031;-70
2022/11/13 01:31:27;;;;;;;87.78;17.50;;;;;;;1.94;100.00;96821.28;1026907;28;20035;-69
2022/11/13 01:31:57;;;;;;;97.32;19.25;;;;;;;1.92;100.00;96818.88;1031142;28;20026;-68
2022/11/13 01:32:28;;;;;;;88.85;16.83;;;;;;;1.83;100.00;96794.06;1030021;28;20273;-68
2022/11/13 01:32:59;;;;;;;85.63;20.05;;;;;;;1.96;100.00;96806.38;1027727;28;20015;-70
2022/11/13 01:33:29;;;;;;;140.05;17.63;;;;;;;1.88;100.00;96804.69;1030919;28;20022;-69
2022/11/13 01:34:00;;;;;;;98.63;16.50;;;;;;;1.93;100.00;96802.34;1030901;28;20073;-69
2022/11/13 01:34:30;;;;;;;102.10;18.27;;;;;;;1.94;100.00;96818.69;1030921;28;20030;-69
2022/11/13 01:35:00;;;;;;;79.43;17.92;;;;;;;1.91;100.00;96801.72;1031484;28;20025;-70
2022/11/13 01:35:31;;;;;;;119.78;21.73;;;;;;;1.98;100.00;96810.41;1030895;28;20109;-73
2022/11/13 01:36:03;;;;;;;126.90;19.92;;;;;;;1.97;100.00;96807.97;1022927;28;20023;-70
2022/11/13 01:36:34;;;;;;;87.50;17.60;;;;;;;1.99;100.00;96808.59;1026500;28;20050;-70
2022/11/13 01:37:04;;;;;;;79.00;16.92;;;;;;;1.98;100.00;96805.22;1027190;28;20310;-70
2022/11/13 01:37:35;;;;;;;104.30;18.23;;;;;;;1.95;100.00;96810.75;1031345;28;20054;-69
2022/11/13 01:38:05;;;;;;;106.85;20.35;;;;;;;1.95;100.00;96805.56;1034875;28;20514;-68
2022/11/13 01:38:36;;;;;;;143.90;20.67;;;;;;;1.87;100.00;96797.91;1026992;28;20627;-69
2022/11/13 01:39:08;;;;;;;79.97;17.63;;;;;;;1.96;100.00;96804.59;1023416;29;20023;-68
2022/11/13 01:39:38;;;;;;;127.10;19.50;;;;;;;1.96;100.00;96807.19;1023542;29;20023;-69
2022/11/13 01:40:11;;;;;;;113.30;18.88;;;;;;;1.98;100.00;96805.22;1027155;28;20265;-69
2022/11/13 01:40:45;;;;;;;112.47;17.50;;;;;;;1.98;100.00;96800.03;1027630;28;20477;-70
2022/11/13 01:41:23;;;;;;;127.65;19.48;;;;;;;1.98;100.00;96787.09;1018810;29;20310;-70
2022/11/13 01:41:54;;;;;;;99.80;18.58;;;;;;;2.02;100.00;96798.69;1024782;28;20330;-69
2022/11/13 01:42:24;;;;;;;81.80;16.05;;;;;;;1.97;100.00;96797.63;1028009;28;20752;-70
2022/11/13 01:42:55;;;;;;;82.88;16.42;;;;;;;1.92;100.00;96795.59;1033069;28;20029;-71
2022/11/13 01:43:30;;;;;;;75.00;17.13;;;;;;;1.93;100.00;96796.38;1034161;28;20072;-69
2022/11/13 01:44:01;;;;;;;72.03;16.40;;;;;;;1.93;100.00;96792.00;1022883;29;20511;-70
2022/11/13 01:44:50;;;;;;;76.68;16.50;;;;;;;1.93;100.00;96791.22;1022930;29;20266;-70
2022/11/13 01:45:49;;;;;;;70.43;15.80;;;;;;;1.94;100.00;96798.78;1022974;29;20107;-70
2022/11/13 01:46:26;;;;;;;74.65;16.70;;;;;;;1.91;100.00;96793.97;1021049;29;20027;-70
2022/11/13 01:46:57;;;;;;;74.43;16.75;;;;;;;1.93;100.00;96792.00;1022531;28;20271;-71
2022/11/13 01:47:27;;;;;;;56.95;16.77;;;;;;;1.87;100.00;96787.56;1026929;28;20692;-71
2022/11/13 01:47:58;;;;;;;80.07;16.83;;;;;;;1.89;100.00;96783.81;1030887;28;20201;-71
2022/11/13 01:48:33;;;;;;;62.10;16.70;;;;;;;1.96;100.00;96793.44;1024861;28;20031;-70
2022/11/13 01:49:06;;;;;;;75.60;16.88;;;;;;;1.98;100.00;96791.44;1030897;28;20072;-69
2022/11/13 01:49:37;;;;;;;104.25;20.13;;;;;;;1.85;100.00;96779.97;1022613;29;20700;-71
2022/11/13 01:50:08;;;;;;;84.10;17.02;;;;;;;1.95;100.00;96792.63;1024415;28;20311;-70
2022/11/13 01:50:38;;;;;;;70.65;18.08;;;;;;;1.94;100.00;96793.59;1026720;28;20026;-69
2022/11/13 01:51:11;;;;;;;80.47;16.48;;;;;;;1.90;100.00;96792.38;1026802;28;20389;-71
2022/11/13 01:51:46;;;;;;;100.90;19.08;;;;;;;1.89;100.00;96783.00;1022834;28;20769;-70
2022/11/13 01:52:34;;;;;;;108.05;19.67;;;;;;;1.90;100.00;96789.78;1018272;29;20270;-70
2022/11/13 01:53:04;;;;;;;60.58;15.50;;;;;;;1.87;100.00;96782.38;1014910;29;20260;-69
2022/11/13 01:53:35;;;;;;;69.93;16.50;;;;;;;1.88;100.00;96784.00;1019736;28;20828;-70
2022/11/13 01:54:30;;;;;;;109.85;19.92;;;;;;;1.90;100.00;96789.78;1025254;28;20028;-68
2022/11/13 01:55:11;;;;;;;90.63;19.08;;;;;;;1.91;100.00;96788.00;1029576;28;20092;-70
2022/11/13 01:55:42;;;;;;;104.40;17.85;;;;;;;1.79;100.00;96774.72;1019704;29;20277;-70
2022/11/13 01:56:12;;;;;;;96.18;18.67;;;;;;;1.80;100.00;96778.91;1019047;29;20291;-69
2022/11/13 01:56:43;;;;;;;91.55;19.20;;;;;;;1.82;100.00;96780.34;1022902;29;20086;-71
2022/11/13 01:57:14;;;;;;;76.68;17.77;;;;;;;1.85;100.00;96784.34;1022906;29;20572;-70
2022/11/13 01:57:44;;;;;;;117.97;18.50;;;;;;;1.85;100.00;96781.78;1026896;28;20117;-70
2022/11/13 01:58:15;;;;;;;116.78;19.33;;;;;;;1.81;100.00;96772.75;1027014;28;20266;-69
2022/11/13 01:58:52;;;;;;;127.93;21.67;;;;;;;1.88;100.00;96784.81;1020089;29;20016;-69
2022/11/13 01:59:26;;;;;;;97.93;18.10;;;;;;;1.86;100.00;96780.78;1026843;28;20476;-70
2022/11/13 02:00:00;;;;;;;96.75;18.80;;;;;;;1.82;100.00;96774.38;1030825;28;20265;-70
2022/11/13 02:00:30;;;;;;;66.22;17.17;;;;;;;1.89;100.00;96785.59;1023623;28;20262;-70
2022/11/13 02:01:01;;;;;;;90.75;18.52;;;;;;;1.96;100.00;96786.47;1022871;28;20258;-70
2022/11/13 02:01:31;;;;;;;100.00;18.45;;;;;;;1.96;100.00;96783.88;1027160;28;20035;-67
2022/11/13 02:02:02;;;;;;;105.43;18.80;;;;;;;1.89;100.00;96778.63;1022846;28;20020;-70
2022/11/13 02:02:32;;;;;;;105.85;18.35;;;;;;;1.91;100.00;96782.81;1022148;29;20034;-69
2022/11/13 02:03:03;;;;;;;83.68;16.73;;;;;;;1.88;100.00;96782.22;1018930;29;20031;-70
2022/11/13 02:03:33;;;;;;;94.38;18.02;;;;;;;1.89;100.00;96783.81;1022917;28;20026;-72
2022/11/13 02:04:04;;;;;;;100.65;18.88;;;;;;;1.95;100.00;96784.06;1030992;28;20085;-69
2022/11/13 02:04:34;;;;;;;77.90;18.98;;;;;;;1.91;100.00;96777.63;1022711;28;20031;-70
2022/11/13 02:05:07;;;;;;;101.10;18.73;;;;;;;1.86;100.00;96771.22;1026833;28;20029;-70
2022/11/13 02:05:37;;;;;;;117.45;18.15;;;;;;;1.86;100.00;96770.44;1021591;29;20011;-69
2022/11/13 02:06:08;;;;;;;93.18;17.58;;;;;;;1.95;100.00;96784.88;1022903;29;20661;-69
2022/11/13 02:06:43;;;;;;;106.43;19.70;;;;;;;1.87;100.00;96774.59;1022508;29;20519;-68
2022/11/13 02:07:14;;;;;;;72.30;17.42;;;;;;;1.87;100.00;96772.81;1034633;28;20018;-70
2022/11/13 02:07:45;;;;;;;79.07;17.42;;;;;;;1.89;100.00;96775.25;1042843;28;20356;-71
2022/11/13 02:08:15;;;;;;;76.22;19.25;;;;;;;1.94;100.00;96780.66;1038737;28;20268;-69
2022/11/13 02:08:45;;;;;;;124.03;18.38;;;;;;;1.90;100.00;96771.66;1037654;28;20021;-71
2022/11/13 02:09:17;;;;;;;110.45;20.38;;;;;;;1.89;100.00;96772.66;1034875;28;20515;-69
2022/11/13 02:09:49;;;;;;;89.35;17.50;;;;;;;1.92;100.00;96779.25;1030706;28;20610;-69
2022/11/13 02:10:19;;;;;;;139.45;21.85;;;;;;;1.96;100.00;96775.31;1027168;28;20278;-71
2022/11/13 02:10:50;;;;;;;79.47;18.20;;;;;;;1.91;100.00;96768.09;1030431;28;20798;-70
2022/11/13 02:11:20;;;;;;;105.05;19.00;;;;;;;1.99;100.00;96778.34;1027088;28;20030;-69
2022/11/13 02:11:51;;;;;;;126.28;18.35;;;;;;;1.96;100.00;96781.28;1026802;28;20023;-72
2022/11/13 02:12:28;;;;;;;65.45;16.75;;;;;;;1.96;100.00;96770.94;1026119;28;20093;-69
2022/11/13 02:12:58;;;;;;;107.38;19.75;;;;;;;1.94;100.00;96775.47;1022735;29;20578;-69
2022/11/13 02:13:29;;;;;;;68.50;16.35;;;;;;;1.97;100.00;96782.88;1019014;29;20359;-70
2022/11/13 02:13:59;;;;;;;79.15;17.80;;;;;;;1.96;100.00;96776.13;1020690;29;20028;-69
2022/11/13 02:14:30;;;;;;;152.55;18.63;;;;;;;1.89;100.00;96770.06;1026861;28;20082;-68
2022/11/13 02:15:01;;;;;;;84.82;17.05;;;;;;;1.86;100.00;96766.06;1026854;28;20019;-70
2022/11/13 02:15:32;;;;;;;67.38;17.45;;;;;;;1.94;100.00;96772.91;1022625;29;20567;-70
2022/11/13 02:16:02;;;;;;;80.93;17.00;;;;;;;1.86;100.00;96755.69;1026698;28;20259;-71
2022/11/13 02:16:33;;;;;;;104.10;18.42;;;;;;;1.97;100.00;96774.31;1030766;28;20150;-69
2022/11/13 02:17:05;;;;;;;92.05;18.33;;;;;;;1.97;100.00;96766.56;1026777;28;20026;-70
2022/11/13 02:17:47;;;;;;;112.50;20.00;;;;;;;1.90;100.00;96763.91;1026620;28;20034;-70
2022/11/13 02:18:18;;;;;;;93.85;19.10;;;;;;;1.93;100.00;96762.75;1022667;29;20840;-70
2022/11/13 02:18:48;;;;;;;99.53;18.23;;;;;;;1.94;100.00;96770.31;1016757;29;20257;-70
2022/11/13 02:19:40;;;;;;;72.80;17.60;;;;;;;1.88;100.00;96763.28;1028223;28;20026;-71
2022/11/13 02:20:11;;;;;;;109.65;18.08;;;;;;;1.85;100.00;96766.25;1033726;28;20464;-71
2022/11/13 02:21:03;;;;;;;75.57;18.60;;;;;;;1.86;100.00;96762.66;1026652;28;20273;-70
2022/11/13 02:21:37;;;;;;;110.75;19.83;;;;;;;1.84;100.00;96762.03;1026757;28;20097;-70
2022/11/13 02:22:14;;;;;;;78.05;16.73;;;;;;;1.84;100.00;96756.84;1030865;28;20777;-71
2022/11/13 02:23:01;;;;;;;99.43;16.77;;;;;;;1.85;100.00;96767.03;1030713;28;20269;-71
2022/11/13 02:24:07;;;;;;;77.03;17.27;;;;;;;1.87;100.00;96762.47;1027019;28;20262;-67
2022/11/13 02:24:42;;;;;;;51.70;16.10;;;;;;;1.90;100.00;96763.91;1033408;28;21127;-69
2022/11/13 02:25:12;;;;;;;61.83;17.13;;;;;;;1.88;100.00;96753.75;1034829;28;20280;-69